sensor_id;sensor_type;location;lat;lon;timestamp;temperature;humidity
20070;DHT22;10195;50.868;4.382;2022-08-21T00:01:16;19.00;99.90
20070;DHT22;10195;50.868;4.382;2022-08-21T00:03:43;18.90;99.90
20070;DHT22;10195;50.868;4.382;2022-08-21T00:06:09;18.80;99.90
20070;DHT22;10195;50.868;4.382;2022-08-21T00:08:35;18.70;99.90
20070;DHT22;10195;50.868;4.382;2022-08-21T00:11:02;18.80;99.90
20070;DHT22;10195;50.868;4.382;2022-08-21T00:13:28;18.80;99.90
20070;DHT22;10195;50.868;4.382;2022-08-21T00:15:53;18.80;99.90
20070;DHT22;10195;50.868;4.382;2022-08-21T00:18:19;18.80;99.90
20070;DHT22;10195;50.868;4.382;2022-08-21T00:20:46;18.70;99.90
20070;DHT22;10195;50.868;4.382;2022-08-21T00:23:12;18.70;99.90
20070;DHT22;10195;50.868;4.382;2022-08-21T00:25:38;18.60;99.90
20070;DHT22;10195;50.868;4.382;2022-08-21T00:28:04;18.60;99.90
20070;DHT22;10195;50.868;4.382;2022-08-21T00:30:32;18.60;99.90
20070;DHT22;10195;50.868;4.382;2022-08-21T00:32:59;18.50;99.90
20070;DHT22;10195;50.868;4.382;2022-08-21T00:35:29;18.50;99.90
20070;DHT22;10195;50.868;4.382;2022-08-21T00:37:55;18.50;99.90
20070;DHT22;10195;50.868;4.382;2022-08-21T00:40:25;18.50;99.90
20070;DHT22;10195;50.868;4.382;2022-08-21T00:42:51;18.50;99.90
20070;DHT22;10195;50.868;4.382;2022-08-21T00:45:17;18.40;99.90
20070;DHT22;10195;50.868;4.382;2022-08-21T00:47:43;18.40;99.90
20070;DHT22;10195;50.868;4.382;2022-08-21T00:50:10;18.30;99.90
20070;DHT22;10195;50.868;4.382;2022-08-21T00:52:37;18.30;99.90
20070;DHT22;10195;50.868;4.382;2022-08-21T00:55:05;18.30;99.90
20070;DHT22;10195;50.868;4.382;2022-08-21T00:57:38;18.20;99.90
20070;DHT22;10195;50.868;4.382;2022-08-21T01:00:09;18.10;99.90
20070;DHT22;10195;50.868;4.382;2022-08-21T01:02:34;18.10;99.90
20070;DHT22;10195;50.868;4.382;2022-08-21T01:05:00;18.10;99.90
20070;DHT22;10195;50.868;4.382;2022-08-21T01:07:26;18.10;99.90
20070;DHT22;10195;50.868;4.382;2022-08-21T01:09:51;18.20;99.90
20070;DHT22;10195;50.868;4.382;2022-08-21T01:12:18;18.10;99.90
20070;DHT22;10195;50.868;4.382;2022-08-21T01:14:44;18.10;99.90
20070;DHT22;10195;50.868;4.382;2022-08-21T01:17:12;18.10;99.90
20070;DHT22;10195;50.868;4.382;2022-08-21T01:19:39;18.10;99.90
20070;DHT22;10195;50.868;4.382;2022-08-21T01:22:05;18.00;99.90
20070;DHT22;10195;50.868;4.382;2022-08-21T01:24:31;17.90;99.90
20070;DHT22;10195;50.868;4.382;2022-08-21T01:26:58;18.00;99.90
20070;DHT22;10195;50.868;4.382;2022-08-21T01:30:31;17.90;99.90
20070;DHT22;10195;50.868;4.382;2022-08-21T01:32:25;17.90;99.90
20070;DHT22;10195;50.868;4.382;2022-08-21T01:34:52;18.00;99.90
20070;DHT22;10195;50.868;4.382;2022-08-21T01:37:20;17.90;99.90
20070;DHT22;10195;50.868;4.382;2022-08-21T01:39:47;17.90;99.90
20070;DHT22;10195;50.868;4.382;2022-08-21T01:42:13;17.90;99.90
20070;DHT22;10195;50.868;4.382;2022-08-21T01:44:40;17.90;99.90
20070;DHT22;10195;50.868;4.382;2022-08-21T01:47:10;17.90;99.90
20070;DHT22;10195;50.868;4.382;2022-08-21T01:49:37;17.80;99.90
20070;DHT22;10195;50.868;4.382;2022-08-21T01:52:04;17.80;99.90
20070;DHT22;10195;50.868;4.382;2022-08-21T01:54:30;17.80;99.90
20070;DHT22;10195;50.868;4.382;2022-08-21T01:56:56;17.80;99.90
20070;DHT22;10195;50.868;4.382;2022-08-21T01:59:23;17.80;99.90
20070;DHT22;10195;50.868;4.382;2022-08-21T02:01:49;17.80;99.90
20070;DHT22;10195;50.868;4.382;2022-08-21T02:04:16;17.70;99.90
20070;DHT22;10195;50.868;4.382;2022-08-21T02:06:42;17.70;99.90
20070;DHT22;10195;50.868;4.382;2022-08-21T02:09:09;17.70;99.90
20070;DHT22;10195;50.868;4.382;2022-08-21T02:11:35;17.70;99.90
20070;DHT22;10195;50.868;4.382;2022-08-21T02:14:02;17.60;99.90
20070;DHT22;10195;50.868;4.382;2022-08-21T02:16:27;17.60;99.90
20070;DHT22;10195;50.868;4.382;2022-08-21T02:18:53;17.60;99.90
20070;DHT22;10195;50.868;4.382;2022-08-21T02:21:19;17.50;99.90
20070;DHT22;10195;50.868;4.382;2022-08-21T02:23:45;17.60;99.90
20070;DHT22;10195;50.868;4.382;2022-08-21T02:26:11;17.60;99.90
20070;DHT22;10195;50.868;4.382;2022-08-21T02:28:37;17.60;99.90
20070;DHT22;10195;50.868;4.382;2022-08-21T02:31:04;17.60;99.90
20070;DHT22;10195;50.868;4.382;2022-08-21T02:33:30;17.50;99.90
20070;DHT22;10195;50.868;4.382;2022-08-21T02:35:57;17.50;99.90
20070;DHT22;10195;50.868;4.382;2022-08-21T02:38:26;17.40;99.90
20070;DHT22;10195;50.868;4.382;2022-08-21T02:40:53;17.40;99.90
20070;DHT22;10195;50.868;4.382;2022-08-21T02:43:20;17.40;99.90
20070;DHT22;10195;50.868;4.382;2022-08-21T02:45:47;17.40;99.90
20070;DHT22;10195;50.868;4.382;2022-08-21T02:48:16;17.40;99.90
20070;DHT22;10195;50.868;4.382;2022-08-21T02:50:46;17.40;99.90
20070;DHT22;10195;50.868;4.382;2022-08-21T02:53:14;17.40;99.90
20070;DHT22;10195;50.868;4.382;2022-08-21T02:55:43;17.30;99.90
20070;DHT22;10195;50.868;4.382;2022-08-21T02:58:09;17.40;99.90
20070;DHT22;10195;50.868;4.382;2022-08-21T03:00:36;17.30;99.90
20070;DHT22;10195;50.868;4.382;2022-08-21T03:03:03;17.30;99.90
20070;DHT22;10195;50.868;4.382;2022-08-21T03:05:30;17.30;99.90
20070;DHT22;10195;50.868;4.382;2022-08-21T03:07:57;17.30;99.90
20070;DHT22;10195;50.868;4.382;2022-08-21T03:10:24;17.40;99.90
20070;DHT22;10195;50.868;4.382;2022-08-21T03:12:50;17.30;99.90
20070;DHT22;10195;50.868;4.382;2022-08-21T03:15:19;17.30;99.90
20070;DHT22;10195;50.868;4.382;2022-08-21T03:17:46;17.30;99.90
20070;DHT22;10195;50.868;4.382;2022-08-21T03:20:13;17.40;99.90
20070;DHT22;10195;50.868;4.382;2022-08-21T03:22:40;17.40;99.90
20070;DHT22;10195;50.868;4.382;2022-08-21T03:25:06;17.40;99.90
20070;DHT22;10195;50.868;4.382;2022-08-21T03:27:32;17.40;99.90
20070;DHT22;10195;50.868;4.382;2022-08-21T03:29:59;17.40;99.90
20070;DHT22;10195;50.868;4.382;2022-08-21T03:32:25;17.30;99.90
20070;DHT22;10195;50.868;4.382;2022-08-21T03:34:50;17.30;99.90
20070;DHT22;10195;50.868;4.382;2022-08-21T03:37:16;17.30;99.90
20070;DHT22;10195;50.868;4.382;2022-08-21T03:39:43;17.20;99.90
20070;DHT22;10195;50.868;4.382;2022-08-21T03:42:08;17.30;99.90
20070;DHT22;10195;50.868;4.382;2022-08-21T03:44:35;17.20;99.90
20070;DHT22;10195;50.868;4.382;2022-08-21T03:47:01;17.20;99.90
20070;DHT22;10195;50.868;4.382;2022-08-21T03:49:27;17.20;99.90
20070;DHT22;10195;50.868;4.382;2022-08-21T03:51:53;17.20;99.90
20070;DHT22;10195;50.868;4.382;2022-08-21T03:54:18;17.10;99.90
20070;DHT22;10195;50.868;4.382;2022-08-21T03:56:44;17.10;99.90
20070;DHT22;10195;50.868;4.382;2022-08-21T03:59:10;17.10;99.90
20070;DHT22;10195;50.868;4.382;2022-08-21T04:01:36;17.10;99.90
20070;DHT22;10195;50.868;4.382;2022-08-21T04:04:04;17.10;99.90
20070;DHT22;10195;50.868;4.382;2022-08-21T04:06:30;17.10;99.90
20070;DHT22;10195;50.868;4.382;2022-08-21T04:08:55;17.10;99.90
20070;DHT22;10195;50.868;4.382;2022-08-21T04:11:21;17.00;99.90
20070;DHT22;10195;50.868;4.382;2022-08-21T04:13:48;17.00;99.90
20070;DHT22;10195;50.868;4.382;2022-08-21T04:16:14;17.00;99.90
20070;DHT22;10195;50.868;4.382;2022-08-21T04:18:40;17.00;99.90
20070;DHT22;10195;50.868;4.382;2022-08-21T04:21:07;17.00;99.90
20070;DHT22;10195;50.868;4.382;2022-08-21T04:23:35;17.00;99.90
20070;DHT22;10195;50.868;4.382;2022-08-21T04:26:01;17.00;99.90
20070;DHT22;10195;50.868;4.382;2022-08-21T04:28:27;17.00;99.90
20070;DHT22;10195;50.868;4.382;2022-08-21T04:30:53;16.90;99.90
20070;DHT22;10195;50.868;4.382;2022-08-21T04:33:20;17.00;99.90
20070;DHT22;10195;50.868;4.382;2022-08-21T04:35:46;17.00;99.90
20070;DHT22;10195;50.868;4.382;2022-08-21T04:38:12;17.00;99.90
20070;DHT22;10195;50.868;4.382;2022-08-21T04:40:37;17.00;99.90
20070;DHT22;10195;50.868;4.382;2022-08-21T04:43:09;17.00;99.90
20070;DHT22;10195;50.868;4.382;2022-08-21T04:45:38;16.90;99.90
20070;DHT22;10195;50.868;4.382;2022-08-21T04:48:06;16.90;99.90
20070;DHT22;10195;50.868;4.382;2022-08-21T04:50:37;16.90;99.90
20070;DHT22;10195;50.868;4.382;2022-08-21T04:53:11;16.90;99.90
20070;DHT22;10195;50.868;4.382;2022-08-21T04:55:39;16.90;99.90
20070;DHT22;10195;50.868;4.382;2022-08-21T04:58:09;17.00;99.90
20070;DHT22;10195;50.868;4.382;2022-08-21T05:00:37;17.10;99.90
20070;DHT22;10195;50.868;4.382;2022-08-21T05:03:04;17.00;99.90
20070;DHT22;10195;50.868;4.382;2022-08-21T05:05:30;17.10;99.90
20070;DHT22;10195;50.868;4.382;2022-08-21T05:07:57;17.10;99.90
20070;DHT22;10195;50.868;4.382;2022-08-21T05:10:24;17.10;99.90
20070;DHT22;10195;50.868;4.382;2022-08-21T05:12:51;17.10;99.90
20070;DHT22;10195;50.868;4.382;2022-08-21T05:15:16;17.10;99.90
20070;DHT22;10195;50.868;4.382;2022-08-21T05:17:42;17.10;99.90
20070;DHT22;10195;50.868;4.382;2022-08-21T05:20:09;17.10;99.90
20070;DHT22;10195;50.868;4.382;2022-08-21T05:22:35;17.10;99.90
20070;DHT22;10195;50.868;4.382;2022-08-21T05:25:01;17.10;99.90
20070;DHT22;10195;50.868;4.382;2022-08-21T05:27:26;17.10;99.90
20070;DHT22;10195;50.868;4.382;2022-08-21T05:29:55;17.20;99.90
20070;DHT22;10195;50.868;4.382;2022-08-21T05:32:21;17.10;99.90
20070;DHT22;10195;50.868;4.382;2022-08-21T05:34:46;17.20;99.90
20070;DHT22;10195;50.868;4.382;2022-08-21T05:37:12;17.10;99.90
20070;DHT22;10195;50.868;4.382;2022-08-21T05:39:38;17.10;99.90
20070;DHT22;10195;50.868;4.382;2022-08-21T05:42:03;17.10;99.90
20070;DHT22;10195;50.868;4.382;2022-08-21T05:44:29;17.40;99.90
20070;DHT22;10195;50.868;4.382;2022-08-21T05:47:02;17.80;99.90
20070;DHT22;10195;50.868;4.382;2022-08-21T05:49:27;18.30;99.90
20070;DHT22;10195;50.868;4.382;2022-08-21T05:51:53;18.80;99.90
20070;DHT22;10195;50.868;4.382;2022-08-21T05:54:18;19.20;99.90
20070;DHT22;10195;50.868;4.382;2022-08-21T05:56:44;19.70;99.90
20070;DHT22;10195;50.868;4.382;2022-08-21T05:59:10;19.80;99.90
20070;DHT22;10195;50.868;4.382;2022-08-21T06:01:36;20.10;99.90
20070;DHT22;10195;50.868;4.382;2022-08-21T06:04:02;20.70;99.90
20070;DHT22;10195;50.868;4.382;2022-08-21T06:06:27;21.10;99.90
20070;DHT22;10195;50.868;4.382;2022-08-21T06:08:53;21.50;99.90
20070;DHT22;10195;50.868;4.382;2022-08-21T06:11:18;21.70;99.90
20070;DHT22;10195;50.868;4.382;2022-08-21T06:13:44;21.70;99.90
20070;DHT22;10195;50.868;4.382;2022-08-21T06:16:15;21.30;99.90
20070;DHT22;10195;50.868;4.382;2022-08-21T06:18:41;21.70;99.90
20070;DHT22;10195;50.868;4.382;2022-08-21T06:21:07;22.20;99.90
20070;DHT22;10195;50.868;4.382;2022-08-21T06:23:34;22.90;99.90
20070;DHT22;10195;50.868;4.382;2022-08-21T06:26:02;23.00;99.90
20070;DHT22;10195;50.868;4.382;2022-08-21T06:28:28;23.60;99.90
20070;DHT22;10195;50.868;4.382;2022-08-21T06:30:54;24.10;99.90
20070;DHT22;10195;50.868;4.382;2022-08-21T06:33:20;24.30;99.90
20070;DHT22;10195;50.868;4.382;2022-08-21T06:35:45;24.70;99.90
20070;DHT22;10195;50.868;4.382;2022-08-21T06:38:11;24.40;99.90
20070;DHT22;10195;50.868;4.382;2022-08-21T06:40:38;24.30;99.90
20070;DHT22;10195;50.868;4.382;2022-08-21T06:43:09;24.30;99.90
20070;DHT22;10195;50.868;4.382;2022-08-21T06:45:35;24.90;99.90
20070;DHT22;10195;50.868;4.382;2022-08-21T06:48:01;25.30;99.90
20070;DHT22;10195;50.868;4.382;2022-08-21T06:50:28;25.80;99.90
20070;DHT22;10195;50.868;4.382;2022-08-21T06:53:20;25.80;99.90
20070;DHT22;10195;50.868;4.382;2022-08-21T06:55:46;25.80;99.90
20070;DHT22;10195;50.868;4.382;2022-08-21T06:58:12;25.60;99.90
20070;DHT22;10195;50.868;4.382;2022-08-21T07:00:41;25.20;99.90
20070;DHT22;10195;50.868;4.382;2022-08-21T07:03:07;25.60;99.90
20070;DHT22;10195;50.868;4.382;2022-08-21T07:05:40;26.30;99.90
20070;DHT22;10195;50.868;4.382;2022-08-21T07:08:06;27.20;99.90
20070;DHT22;10195;50.868;4.382;2022-08-21T07:10:32;27.90;99.90
20070;DHT22;10195;50.868;4.382;2022-08-21T07:12:57;28.40;99.90
20070;DHT22;10195;50.868;4.382;2022-08-21T07:15:23;27.70;99.90
20070;DHT22;10195;50.868;4.382;2022-08-21T07:17:48;27.50;99.90
20070;DHT22;10195;50.868;4.382;2022-08-21T07:20:14;28.20;99.90
20070;DHT22;10195;50.868;4.382;2022-08-21T07:22:40;28.00;99.90
20070;DHT22;10195;50.868;4.382;2022-08-21T07:25:06;27.90;99.90
20070;DHT22;10195;50.868;4.382;2022-08-21T07:27:32;27.60;99.90
20070;DHT22;10195;50.868;4.382;2022-08-21T07:29:59;27.60;99.90
20070;DHT22;10195;50.868;4.382;2022-08-21T07:32:24;27.00;99.90
20070;DHT22;10195;50.868;4.382;2022-08-21T07:34:50;26.20;99.90
20070;DHT22;10195;50.868;4.382;2022-08-21T07:37:16;25.70;99.90
20070;DHT22;10195;50.868;4.382;2022-08-21T07:39:41;25.70;99.90
20070;DHT22;10195;50.868;4.382;2022-08-21T07:42:07;26.20;99.90
20070;DHT22;10195;50.868;4.382;2022-08-21T07:44:33;27.10;99.90
20070;DHT22;10195;50.868;4.382;2022-08-21T07:47:00;27.60;99.90
20070;DHT22;10195;50.868;4.382;2022-08-21T07:49:26;27.90;99.90
20070;DHT22;10195;50.868;4.382;2022-08-21T07:51:52;27.80;99.90
20070;DHT22;10195;50.868;4.382;2022-08-21T07:54:17;27.80;99.90
20070;DHT22;10195;50.868;4.382;2022-08-21T07:56:43;28.30;99.90
20070;DHT22;10195;50.868;4.382;2022-08-21T07:59:09;28.60;99.90
20070;DHT22;10195;50.868;4.382;2022-08-21T08:01:34;28.50;99.90
20070;DHT22;10195;50.868;4.382;2022-08-21T08:04:00;28.20;99.90
20070;DHT22;10195;50.868;4.382;2022-08-21T08:06:26;27.80;99.90
20070;DHT22;10195;50.868;4.382;2022-08-21T08:08:51;27.40;99.90
20070;DHT22;10195;50.868;4.382;2022-08-21T08:11:17;26.70;99.90
20070;DHT22;10195;50.868;4.382;2022-08-21T08:13:46;26.10;99.90
20070;DHT22;10195;50.868;4.382;2022-08-21T08:16:13;25.90;99.90
20070;DHT22;10195;50.868;4.382;2022-08-21T08:18:38;26.20;99.90
20070;DHT22;10195;50.868;4.382;2022-08-21T08:21:04;25.50;99.90
20070;DHT22;10195;50.868;4.382;2022-08-21T08:23:31;25.40;99.90
20070;DHT22;10195;50.868;4.382;2022-08-21T08:25:57;25.50;99.90
20070;DHT22;10195;50.868;4.382;2022-08-21T08:28:23;26.00;99.90
20070;DHT22;10195;50.868;4.382;2022-08-21T08:30:50;25.70;99.90
20070;DHT22;10195;50.868;4.382;2022-08-21T08:33:17;25.40;99.90
20070;DHT22;10195;50.868;4.382;2022-08-21T08:35:45;25.80;99.90
20070;DHT22;10195;50.868;4.382;2022-08-21T08:38:13;26.20;99.90
20070;DHT22;10195;50.868;4.382;2022-08-21T08:41:12;26.20;99.90
20070;DHT22;10195;50.868;4.382;2022-08-21T08:43:40;26.90;99.90
20070;DHT22;10195;50.868;4.382;2022-08-21T08:46:13;27.30;99.90
20070;DHT22;10195;50.868;4.382;2022-08-21T08:51:25;27.70;99.90
20070;DHT22;10195;50.868;4.382;2022-08-21T08:54:04;27.50;99.90
20070;DHT22;10195;50.868;4.382;2022-08-21T08:56:35;27.30;99.90
20070;DHT22;10195;50.868;4.382;2022-08-21T08:59:07;27.60;99.90
20070;DHT22;10195;50.868;4.382;2022-08-21T09:01:34;27.70;99.90
20070;DHT22;10195;50.868;4.382;2022-08-21T09:04:00;27.80;99.90
20070;DHT22;10195;50.868;4.382;2022-08-21T09:12:02;28.90;99.90
20070;DHT22;10195;50.868;4.382;2022-08-21T09:20:54;28.80;99.90
20070;DHT22;10195;50.868;4.382;2022-08-21T09:23:52;29.40;99.90
20070;DHT22;10195;50.868;4.382;2022-08-21T09:26:25;28.30;99.90
20070;DHT22;10195;50.868;4.382;2022-08-21T09:28:56;28.20;99.90
20070;DHT22;10195;50.868;4.382;2022-08-21T09:34:05;28.60;99.90
20070;DHT22;10195;50.868;4.382;2022-08-21T09:36:38;28.90;99.90
20070;DHT22;10195;50.868;4.382;2022-08-21T09:39:05;28.80;99.90
20070;DHT22;10195;50.868;4.382;2022-08-21T09:41:33;29.30;99.90
20070;DHT22;10195;50.868;4.382;2022-08-21T09:44:01;28.90;99.90
20070;DHT22;10195;50.868;4.382;2022-08-21T09:46:27;29.50;99.90
20070;DHT22;10195;50.868;4.382;2022-08-21T09:49:00;29.00;99.90
20070;DHT22;10195;50.868;4.382;2022-08-21T09:51:32;29.20;99.90
20070;DHT22;10195;50.868;4.382;2022-08-21T09:54:11;28.00;99.90
20070;DHT22;10195;50.868;4.382;2022-08-21T09:56:51;27.40;99.90
20070;DHT22;10195;50.868;4.382;2022-08-21T09:59:36;27.10;99.90
20070;DHT22;10195;50.868;4.382;2022-08-21T10:05:24;25.50;99.90
20070;DHT22;10195;50.868;4.382;2022-08-21T10:07:50;25.60;99.90
20070;DHT22;10195;50.868;4.382;2022-08-21T10:10:23;24.60;99.90
20070;DHT22;10195;50.868;4.382;2022-08-21T10:16:22;23.90;99.90
20070;DHT22;10195;50.868;4.382;2022-08-21T10:24:11;25.40;99.90
20070;DHT22;10195;50.868;4.382;2022-08-21T10:26:57;25.40;99.90
20070;DHT22;10195;50.868;4.382;2022-08-21T10:32:45;25.20;99.90
20070;DHT22;10195;50.868;4.382;2022-08-21T10:40:22;24.40;99.90
20070;DHT22;10195;50.868;4.382;2022-08-21T10:43:05;23.90;99.90
20070;DHT22;10195;50.868;4.382;2022-08-21T10:48:28;23.90;99.90
20070;DHT22;10195;50.868;4.382;2022-08-21T10:51:11;24.10;99.90
20070;DHT22;10195;50.868;4.382;2022-08-21T10:54:05;24.50;99.90
20070;DHT22;10195;50.868;4.382;2022-08-21T10:56:35;24.90;99.90
20070;DHT22;10195;50.868;4.382;2022-08-21T10:59:28;25.00;99.90
20070;DHT22;10195;50.868;4.382;2022-08-21T11:07:21;23.80;99.90
20070;DHT22;10195;50.868;4.382;2022-08-21T11:09:49;23.50;99.90
20070;DHT22;10195;50.868;4.382;2022-08-21T11:15:21;23.50;99.90
20070;DHT22;10195;50.868;4.382;2022-08-21T11:20:54;24.50;99.90
20070;DHT22;10195;50.868;4.382;2022-08-21T11:23:41;24.60;99.90
20070;DHT22;10195;50.868;4.382;2022-08-21T11:26:16;24.50;99.90
20070;DHT22;10195;50.868;4.382;2022-08-21T11:28:58;24.40;99.90
20070;DHT22;10195;50.868;4.382;2022-08-21T11:37:42;24.30;99.90
20070;DHT22;10195;50.868;4.382;2022-08-21T11:40:13;24.70;99.90
20070;DHT22;10195;50.868;4.382;2022-08-21T11:43:20;24.60;99.90
20070;DHT22;10195;50.868;4.382;2022-08-21T11:46:03;24.30;99.90
20070;DHT22;10195;50.868;4.382;2022-08-21T11:51:37;24.80;99.90
20070;DHT22;10195;50.868;4.382;2022-08-21T11:54:24;25.00;99.90
20070;DHT22;10195;50.868;4.382;2022-08-21T11:57:17;25.00;99.90
20070;DHT22;10195;50.868;4.382;2022-08-21T11:59:48;24.50;99.90
20070;DHT22;10195;50.868;4.382;2022-08-21T12:02:18;24.90;99.90
20070;DHT22;10195;50.868;4.382;2022-08-21T12:04:55;25.40;99.90
20070;DHT22;10195;50.868;4.382;2022-08-21T12:07:39;25.90;99.90
20070;DHT22;10195;50.868;4.382;2022-08-21T12:10:12;26.30;99.90
20070;DHT22;10195;50.868;4.382;2022-08-21T12:12:40;26.90;99.90
20070;DHT22;10195;50.868;4.382;2022-08-21T12:15:14;26.50;99.90
20070;DHT22;10195;50.868;4.382;2022-08-21T12:18:01;25.70;99.90
20070;DHT22;10195;50.868;4.382;2022-08-21T12:28:37;25.50;99.90
20070;DHT22;10195;50.868;4.382;2022-08-21T12:31:02;25.40;99.90
20070;DHT22;10195;50.868;4.382;2022-08-21T12:33:37;25.10;99.90
20070;DHT22;10195;50.868;4.382;2022-08-21T12:36:12;24.10;99.90
20070;DHT22;10195;50.868;4.382;2022-08-21T12:41:21;24.00;99.90
20070;DHT22;10195;50.868;4.382;2022-08-21T12:43:57;24.40;99.90
20070;DHT22;10195;50.868;4.382;2022-08-21T12:49:23;25.80;99.90
20070;DHT22;10195;50.868;4.382;2022-08-21T12:52:00;25.80;99.90
20070;DHT22;10195;50.868;4.382;2022-08-21T12:54:32;25.00;99.90
20070;DHT22;10195;50.868;4.382;2022-08-21T12:57:04;24.80;99.90
20070;DHT22;10195;50.868;4.382;2022-08-21T12:59:31;25.00;99.90
20070;DHT22;10195;50.868;4.382;2022-08-21T13:01:59;24.90;99.90
20070;DHT22;10195;50.868;4.382;2022-08-21T13:04:37;24.90;99.90
20070;DHT22;10195;50.868;4.382;2022-08-21T13:07:10;25.20;99.90
20070;DHT22;10195;50.868;4.382;2022-08-21T13:09:48;25.40;99.90
20070;DHT22;10195;50.868;4.382;2022-08-21T13:12:16;25.60;99.90
20070;DHT22;10195;50.868;4.382;2022-08-21T13:14:44;25.10;99.90
20070;DHT22;10195;50.868;4.382;2022-08-21T13:17:14;24.40;99.90
20070;DHT22;10195;50.868;4.382;2022-08-21T13:19:40;24.60;99.90
20070;DHT22;10195;50.868;4.382;2022-08-21T13:22:12;24.70;99.90
20070;DHT22;10195;50.868;4.382;2022-08-21T13:24:38;24.80;99.90
20070;DHT22;10195;50.868;4.382;2022-08-21T13:27:21;24.90;99.90
20070;DHT22;10195;50.868;4.382;2022-08-21T13:29:47;24.40;99.90
20070;DHT22;10195;50.868;4.382;2022-08-21T13:32:21;24.60;99.90
20070;DHT22;10195;50.868;4.382;2022-08-21T13:34:48;24.80;99.90
20070;DHT22;10195;50.868;4.382;2022-08-21T13:37:14;24.80;99.90
20070;DHT22;10195;50.868;4.382;2022-08-21T13:39:40;25.10;99.90
20070;DHT22;10195;50.868;4.382;2022-08-21T13:42:10;25.10;99.90
20070;DHT22;10195;50.868;4.382;2022-08-21T13:44:45;25.10;99.90
20070;DHT22;10195;50.868;4.382;2022-08-21T13:47:13;25.30;99.90
20070;DHT22;10195;50.868;4.382;2022-08-21T13:49:43;25.10;99.90
20070;DHT22;10195;50.868;4.382;2022-08-21T13:52:19;25.20;99.90
20070;DHT22;10195;50.868;4.382;2022-08-21T13:54:53;25.20;99.90
20070;DHT22;10195;50.868;4.382;2022-08-21T13:57:28;25.50;99.90
20070;DHT22;10195;50.868;4.382;2022-08-21T14:00:17;25.40;99.90
20070;DHT22;10195;50.868;4.382;2022-08-21T14:02:47;24.90;99.90
20070;DHT22;10195;50.868;4.382;2022-08-21T14:05:25;25.00;99.90
20070;DHT22;10195;50.868;4.382;2022-08-21T14:10:31;25.60;99.90
20070;DHT22;10195;50.868;4.382;2022-08-21T14:13:05;25.80;99.90
20070;DHT22;10195;50.868;4.382;2022-08-21T14:15:33;26.00;99.90
20070;DHT22;10195;50.868;4.382;2022-08-21T14:18:17;26.00;99.90
20070;DHT22;10195;50.868;4.382;2022-08-21T14:20:43;26.20;99.90
20070;DHT22;10195;50.868;4.382;2022-08-21T14:23:09;26.10;99.90
20070;DHT22;10195;50.868;4.382;2022-08-21T14:25:43;25.90;99.90
20070;DHT22;10195;50.868;4.382;2022-08-21T14:28:20;25.40;99.90
20070;DHT22;10195;50.868;4.382;2022-08-21T14:30:49;25.50;99.90
20070;DHT22;10195;50.868;4.382;2022-08-21T14:33:28;25.50;99.90
20070;DHT22;10195;50.868;4.382;2022-08-21T14:35:54;25.30;99.90
20070;DHT22;10195;50.868;4.382;2022-08-21T14:38:23;25.20;99.90
20070;DHT22;10195;50.868;4.382;2022-08-21T14:41:03;25.40;99.90
20070;DHT22;10195;50.868;4.382;2022-08-21T14:43:31;25.70;99.90
20070;DHT22;10195;50.868;4.382;2022-08-21T14:45:56;25.80;99.90
20070;DHT22;10195;50.868;4.382;2022-08-21T14:48:22;25.80;99.90
20070;DHT22;10195;50.868;4.382;2022-08-21T14:50:48;25.60;99.90
20070;DHT22;10195;50.868;4.382;2022-08-21T14:53:14;25.60;99.90
20070;DHT22;10195;50.868;4.382;2022-08-21T14:55:40;25.70;99.90
20070;DHT22;10195;50.868;4.382;2022-08-21T14:58:25;25.90;99.90
20070;DHT22;10195;50.868;4.382;2022-08-21T15:00:51;25.00;99.90
20070;DHT22;10195;50.868;4.382;2022-08-21T15:03:18;25.10;99.90
20070;DHT22;10195;50.868;4.382;2022-08-21T15:05:44;25.20;99.90
20070;DHT22;10195;50.868;4.382;2022-08-21T15:08:10;25.00;99.90
20070;DHT22;10195;50.868;4.382;2022-08-21T15:10:36;24.70;99.90
20070;DHT22;10195;50.868;4.382;2022-08-21T15:13:02;24.70;99.90
20070;DHT22;10195;50.868;4.382;2022-08-21T15:15:35;25.00;99.90
20070;DHT22;10195;50.868;4.382;2022-08-21T15:18:03;25.10;99.90
20070;DHT22;10195;50.868;4.382;2022-08-21T15:20:29;25.00;99.90
20070;DHT22;10195;50.868;4.382;2022-08-21T15:22:55;25.30;99.90
20070;DHT22;10195;50.868;4.382;2022-08-21T15:25:21;25.50;99.90
20070;DHT22;10195;50.868;4.382;2022-08-21T15:27:47;25.50;99.90
20070;DHT22;10195;50.868;4.382;2022-08-21T15:30:13;25.10;99.90
20070;DHT22;10195;50.868;4.382;2022-08-21T15:32:39;25.00;99.90
20070;DHT22;10195;50.868;4.382;2022-08-21T15:35:06;25.00;99.90
20070;DHT22;10195;50.868;4.382;2022-08-21T15:37:31;24.90;99.90
20070;DHT22;10195;50.868;4.382;2022-08-21T15:39:57;24.90;99.90
20070;DHT22;10195;50.868;4.382;2022-08-21T15:42:24;24.70;99.90
20070;DHT22;10195;50.868;4.382;2022-08-21T15:44:53;24.50;99.90
20070;DHT22;10195;50.868;4.382;2022-08-21T15:47:22;24.70;99.90
20070;DHT22;10195;50.868;4.382;2022-08-21T15:49:48;25.00;99.90
20070;DHT22;10195;50.868;4.382;2022-08-21T15:52:15;25.20;99.90
20070;DHT22;10195;50.868;4.382;2022-08-21T15:54:41;25.10;99.90
20070;DHT22;10195;50.868;4.382;2022-08-21T15:57:13;25.30;99.90
20070;DHT22;10195;50.868;4.382;2022-08-21T15:59:44;25.30;99.90
20070;DHT22;10195;50.868;4.382;2022-08-21T16:02:14;25.40;99.90
20070;DHT22;10195;50.868;4.382;2022-08-21T16:04:40;25.30;99.90
20070;DHT22;10195;50.868;4.382;2022-08-21T16:07:06;25.40;99.90
20070;DHT22;10195;50.868;4.382;2022-08-21T16:09:32;25.40;99.90
20070;DHT22;10195;50.868;4.382;2022-08-21T16:11:59;25.40;99.90
20070;DHT22;10195;50.868;4.382;2022-08-21T16:14:26;25.50;99.90
20070;DHT22;10195;50.868;4.382;2022-08-21T16:16:53;25.50;99.90
20070;DHT22;10195;50.868;4.382;2022-08-21T16:19:18;25.30;99.90
20070;DHT22;10195;50.868;4.382;2022-08-21T16:21:46;25.00;99.90
20070;DHT22;10195;50.868;4.382;2022-08-21T16:24:11;24.80;99.90
20070;DHT22;10195;50.868;4.382;2022-08-21T16:26:37;24.40;99.90
20070;DHT22;10195;50.868;4.382;2022-08-21T16:29:03;24.20;99.90
20070;DHT22;10195;50.868;4.382;2022-08-21T16:31:31;24.10;99.90
20070;DHT22;10195;50.868;4.382;2022-08-21T16:33:57;24.30;99.90
20070;DHT22;10195;50.868;4.382;2022-08-21T16:36:24;24.10;99.90
20070;DHT22;10195;50.868;4.382;2022-08-21T16:38:51;24.10;99.90
20070;DHT22;10195;50.868;4.382;2022-08-21T16:41:19;24.00;99.90
20070;DHT22;10195;50.868;4.382;2022-08-21T16:43:46;24.10;99.90
20070;DHT22;10195;50.868;4.382;2022-08-21T16:46:14;24.40;99.90
20070;DHT22;10195;50.868;4.382;2022-08-21T16:48:41;24.30;99.90
20070;DHT22;10195;50.868;4.382;2022-08-21T16:51:09;24.30;99.90
20070;DHT22;10195;50.868;4.382;2022-08-21T16:53:35;24.20;99.90
20070;DHT22;10195;50.868;4.382;2022-08-21T16:56:01;24.00;99.90
20070;DHT22;10195;50.868;4.382;2022-08-21T16:58:32;23.90;99.90